sensor_id;sensor_type;location;lat;lon;timestamp;P1;durP1;ratioP1;P2;durP2;ratioP2
21170;SDS011;10743;52.160;20.910;2023-11-19T00:02:17;43.23;;;17.97;;
21170;SDS011;10743;52.160;20.910;2023-11-19T00:04:45;41.30;;;17.13;;
21170;SDS011;10743;52.160;20.910;2023-11-19T00:07:12;39.70;;;15.83;;
21170;SDS011;10743;52.160;20.910;2023-11-19T00:09:40;43.10;;;16.07;;
21170;SDS011;10743;52.160;20.910;2023-11-19T00:12:07;41.37;;;16.00;;
21170;SDS011;10743;52.160;20.910;2023-11-19T00:14:34;51.40;;;17.70;;
21170;SDS011;10743;52.160;20.910;2023-11-19T00:17:01;60.77;;;22.10;;
21170;SDS011;10743;52.160;20.910;2023-11-19T00:19:30;49.97;;;18.80;;
21170;SDS011;10743;52.160;20.910;2023-11-19T00:21:57;46.57;;;18.50;;
21170;SDS011;10743;52.160;20.910;2023-11-19T00:24:29;54.00;;;20.27;;
21170;SDS011;10743;52.160;20.910;2023-11-19T00:26:57;51.33;;;21.13;;
21170;SDS011;10743;52.160;20.910;2023-11-19T00:29:24;47.97;;;19.57;;
21170;SDS011;10743;52.160;20.910;2023-11-19T00:31:51;49.57;;;19.43;;
21170;SDS011;10743;52.160;20.910;2023-11-19T00:34:18;44.20;;;18.57;;
21170;SDS011;10743;52.160;20.910;2023-11-19T00:36:48;43.53;;;18.20;;
21170;SDS011;10743;52.160;20.910;2023-11-19T00:39:15;51.13;;;19.23;;
21170;SDS011;10743;52.160;20.910;2023-11-19T00:41:44;41.70;;;17.67;;
21170;SDS011;10743;52.160;20.910;2023-11-19T00:44:12;46.43;;;18.57;;
21170;SDS011;10743;52.160;20.910;2023-11-19T00:46:39;41.47;;;17.60;;
21170;SDS011;10743;52.160;20.910;2023-11-19T00:49:07;42.43;;;17.27;;
21170;SDS011;10743;52.160;20.910;2023-11-19T00:51:34;40.87;;;16.90;;
21170;SDS011;10743;52.160;20.910;2023-11-19T00:54:01;49.47;;;17.73;;
21170;SDS011;10743;52.160;20.910;2023-11-19T00:56:28;50.30;;;18.93;;
21170;SDS011;10743;52.160;20.910;2023-11-19T00:58:55;41.43;;;18.00;;
21170;SDS011;10743;52.160;20.910;2023-11-19T01:01:23;44.00;;;16.90;;
21170;SDS011;10743;52.160;20.910;2023-11-19T01:03:51;49.10;;;18.97;;
21170;SDS011;10743;52.160;20.910;2023-11-19T01:06:31;44.13;;;17.37;;
21170;SDS011;10743;52.160;20.910;2023-11-19T01:08:59;43.57;;;17.87;;
21170;SDS011;10743;52.160;20.910;2023-11-19T01:11:27;43.07;;;17.40;;
21170;SDS011;10743;52.160;20.910;2023-11-19T01:13:54;46.33;;;17.90;;
21170;SDS011;10743;52.160;20.910;2023-11-19T01:16:21;42.70;;;17.40;;
21170;SDS011;10743;52.160;20.910;2023-11-19T01:18:49;42.53;;;16.90;;
21170;SDS011;10743;52.160;20.910;2023-11-19T01:21:16;44.00;;;17.13;;
21170;SDS011;10743;52.160;20.910;2023-11-19T01:23:43;42.60;;;16.63;;
21170;SDS011;10743;52.160;20.910;2023-11-19T01:26:12;51.60;;;17.93;;
21170;SDS011;10743;52.160;20.910;2023-11-19T01:28:39;47.93;;;18.40;;
21170;SDS011;10743;52.160;20.910;2023-11-19T01:31:17;45.70;;;17.40;;
21170;SDS011;10743;52.160;20.910;2023-11-19T01:33:44;42.10;;;16.17;;
21170;SDS011;10743;52.160;20.910;2023-11-19T01:36:14;41.07;;;17.63;;
21170;SDS011;10743;52.160;20.910;2023-11-19T01:38:41;45.73;;;17.20;;
21170;SDS011;10743;52.160;20.910;2023-11-19T01:41:08;45.27;;;18.17;;
21170;SDS011;10743;52.160;20.910;2023-11-19T01:43:36;43.63;;;16.90;;
21170;SDS011;10743;52.160;20.910;2023-11-19T01:46:07;41.73;;;16.57;;
21170;SDS011;10743;52.160;20.910;2023-11-19T01:48:43;40.00;;;16.37;;
21170;SDS011;10743;52.160;20.910;2023-11-19T01:51:12;39.13;;;16.67;;
21170;SDS011;10743;52.160;20.910;2023-11-19T01:53:43;33.87;;;15.50;;
21170;SDS011;10743;52.160;20.910;2023-11-19T01:56:11;38.30;;;15.53;;
21170;SDS011;10743;52.160;20.910;2023-11-19T01:58:42;37.17;;;15.03;;
21170;SDS011;10743;52.160;20.910;2023-11-19T02:01:11;44.37;;;16.27;;
21170;SDS011;10743;52.160;20.910;2023-11-19T02:03:39;43.87;;;15.80;;
21170;SDS011;10743;52.160;20.910;2023-11-19T02:06:07;45.60;;;17.47;;
21170;SDS011;10743;52.160;20.910;2023-11-19T02:08:38;41.83;;;16.90;;
21170;SDS011;10743;52.160;20.910;2023-11-19T02:11:05;38.93;;;15.90;;
21170;SDS011;10743;52.160;20.910;2023-11-19T02:13:36;40.43;;;15.73;;
21170;SDS011;10743;52.160;20.910;2023-11-19T02:16:05;38.70;;;15.97;;
21170;SDS011;10743;52.160;20.910;2023-11-19T02:18:33;48.73;;;17.77;;
21170;SDS011;10743;52.160;20.910;2023-11-19T02:21:00;38.87;;;16.17;;
21170;SDS011;10743;52.160;20.910;2023-11-19T02:23:27;38.77;;;16.20;;
21170;SDS011;10743;52.160;20.910;2023-11-19T02:26:01;41.23;;;17.90;;
21170;SDS011;10743;52.160;20.910;2023-11-19T02:28:41;37.10;;;15.30;;
21170;SDS011;10743;52.160;20.910;2023-11-19T02:31:09;39.57;;;16.53;;
21170;SDS011;10743;52.160;20.910;2023-11-19T02:33:38;42.67;;;16.87;;
21170;SDS011;10743;52.160;20.910;2023-11-19T02:36:06;40.50;;;15.30;;
21170;SDS011;10743;52.160;20.910;2023-11-19T02:38:35;46.40;;;17.60;;
21170;SDS011;10743;52.160;20.910;2023-11-19T02:41:06;41.27;;;15.73;;
21170;SDS011;10743;52.160;20.910;2023-11-19T02:43:34;43.47;;;15.53;;
21170;SDS011;10743;52.160;20.910;2023-11-19T02:46:04;40.20;;;15.73;;
21170;SDS011;10743;52.160;20.910;2023-11-19T02:48:38;46.83;;;16.67;;
21170;SDS011;10743;52.160;20.910;2023-11-19T02:51:05;48.43;;;18.87;;
21170;SDS011;10743;52.160;20.910;2023-11-19T02:53:36;39.87;;;16.17;;
21170;SDS011;10743;52.160;20.910;2023-11-19T02:56:05;38.97;;;15.13;;
21170;SDS011;10743;52.160;20.910;2023-11-19T02:58:44;41.43;;;15.60;;
21170;SDS011;10743;52.160;20.910;2023-11-19T03:01:12;40.47;;;15.57;;
21170;SDS011;10743;52.160;20.910;2023-11-19T03:03:49;36.27;;;15.33;;
21170;SDS011;10743;52.160;20.910;2023-11-19T03:06:27;40.17;;;15.77;;
21170;SDS011;10743;52.160;20.910;2023-11-19T03:08:55;44.10;;;16.63;;
21170;SDS011;10743;52.160;20.910;2023-11-19T03:11:22;35.53;;;14.57;;
21170;SDS011;10743;52.160;20.910;2023-11-19T03:13:51;36.53;;;14.53;;
21170;SDS011;10743;52.160;20.910;2023-11-19T03:16:18;35.53;;;15.00;;
21170;SDS011;10743;52.160;20.910;2023-11-19T03:18:45;35.17;;;13.93;;
21170;SDS011;10743;52.160;20.910;2023-11-19T03:21:12;37.77;;;15.30;;
21170;SDS011;10743;52.160;20.910;2023-11-19T03:23:40;42.80;;;16.63;;
21170;SDS011;10743;52.160;20.910;2023-11-19T03:26:07;36.43;;;14.30;;
21170;SDS011;10743;52.160;20.910;2023-11-19T03:28:35;38.50;;;15.40;;
21170;SDS011;10743;52.160;20.910;2023-11-19T03:31:06;39.60;;;15.70;;
21170;SDS011;10743;52.160;20.910;2023-11-19T03:33:36;42.00;;;15.47;;
21170;SDS011;10743;52.160;20.910;2023-11-19T03:36:04;44.23;;;15.83;;
21170;SDS011;10743;52.160;20.910;2023-11-19T03:38:32;43.20;;;15.13;;
21170;SDS011;10743;52.160;20.910;2023-11-19T03:40:59;41.33;;;14.40;;
21170;SDS011;10743;52.160;20.910;2023-11-19T03:43:26;40.70;;;15.20;;
21170;SDS011;10743;52.160;20.910;2023-11-19T03:45:54;40.47;;;15.27;;
21170;SDS011;10743;52.160;20.910;2023-11-19T03:48:21;38.37;;;14.83;;
21170;SDS011;10743;52.160;20.910;2023-11-19T03:50:48;39.57;;;14.40;;
21170;SDS011;10743;52.160;20.910;2023-11-19T03:53:15;40.67;;;16.20;;
21170;SDS011;10743;52.160;20.910;2023-11-19T03:55:42;40.83;;;15.80;;
21170;SDS011;10743;52.160;20.910;2023-11-19T03:58:09;38.73;;;14.53;;
21170;SDS011;10743;52.160;20.910;2023-11-19T04:00:36;35.00;;;13.70;;
21170;SDS011;10743;52.160;20.910;2023-11-19T04:03:03;36.47;;;14.40;;
21170;SDS011;10743;52.160;20.910;2023-11-19T04:05:31;40.60;;;14.67;;
21170;SDS011;10743;52.160;20.910;2023-11-19T04:07:58;41.27;;;15.20;;
21170;SDS011;10743;52.160;20.910;2023-11-19T04:10:25;36.57;;;14.40;;
21170;SDS011;10743;52.160;20.910;2023-11-19T04:12:55;44.07;;;14.60;;
21170;SDS011;10743;52.160;20.910;2023-11-19T04:15:22;43.37;;;14.73;;
21170;SDS011;10743;52.160;20.910;2023-11-19T04:17:50;40.93;;;14.70;;
21170;SDS011;10743;52.160;20.910;2023-11-19T04:20:17;35.83;;;14.43;;
21170;SDS011;10743;52.160;20.910;2023-11-19T04:22:45;36.23;;;14.23;;
21170;SDS011;10743;52.160;20.910;2023-11-19T04:25:12;37.13;;;15.27;;
21170;SDS011;10743;52.160;20.910;2023-11-19T04:27:41;41.23;;;14.83;;
21170;SDS011;10743;52.160;20.910;2023-11-19T04:30:08;36.67;;;13.40;;
21170;SDS011;10743;52.160;20.910;2023-11-19T04:32:37;38.50;;;14.47;;
21170;SDS011;10743;52.160;20.910;2023-11-19T04:35:05;40.10;;;14.80;;
21170;SDS011;10743;52.160;20.910;2023-11-19T04:37:33;41.50;;;15.00;;
21170;SDS011;10743;52.160;20.910;2023-11-19T04:40:01;42.27;;;14.13;;
21170;SDS011;10743;52.160;20.910;2023-11-19T04:42:29;35.80;;;15.43;;
21170;SDS011;10743;52.160;20.910;2023-11-19T04:44:56;38.17;;;14.07;;
21170;SDS011;10743;52.160;20.910;2023-11-19T04:47:23;34.40;;;13.53;;
21170;SDS011;10743;52.160;20.910;2023-11-19T04:49:50;36.97;;;13.70;;
21170;SDS011;10743;52.160;20.910;2023-11-19T04:52:17;37.10;;;14.07;;
21170;SDS011;10743;52.160;20.910;2023-11-19T04:54:44;43.17;;;15.17;;
21170;SDS011;10743;52.160;20.910;2023-11-19T04:57:11;38.90;;;14.17;;
21170;SDS011;10743;52.160;20.910;2023-11-19T04:59:39;41.97;;;15.63;;
21170;SDS011;10743;52.160;20.910;2023-11-19T05:02:06;36.93;;;14.07;;
21170;SDS011;10743;52.160;20.910;2023-11-19T05:04:34;40.90;;;15.20;;
21170;SDS011;10743;52.160;20.910;2023-11-19T05:07:01;39.83;;;15.20;;
21170;SDS011;10743;52.160;20.910;2023-11-19T05:09:30;44.77;;;15.37;;
21170;SDS011;10743;52.160;20.910;2023-11-19T05:11:58;37.80;;;15.73;;
21170;SDS011;10743;52.160;20.910;2023-11-19T05:14:25;39.60;;;15.03;;
21170;SDS011;10743;52.160;20.910;2023-11-19T05:16:52;42.23;;;16.07;;
21170;SDS011;10743;52.160;20.910;2023-11-19T05:19:19;36.63;;;15.43;;
21170;SDS011;10743;52.160;20.910;2023-11-19T05:21:46;42.17;;;14.87;;
21170;SDS011;10743;52.160;20.910;2023-11-19T05:24:13;39.73;;;16.07;;
21170;SDS011;10743;52.160;20.910;2023-11-19T05:26:41;45.20;;;15.03;;
21170;SDS011;10743;52.160;20.910;2023-11-19T05:29:08;41.17;;;16.33;;
21170;SDS011;10743;52.160;20.910;2023-11-19T05:31:35;42.87;;;16.63;;
21170;SDS011;10743;52.160;20.910;2023-11-19T05:34:04;41.70;;;16.10;;
21170;SDS011;10743;52.160;20.910;2023-11-19T05:36:31;44.47;;;16.27;;
21170;SDS011;10743;52.160;20.910;2023-11-19T05:38:59;46.13;;;15.83;;
21170;SDS011;10743;52.160;20.910;2023-11-19T05:41:26;41.93;;;16.73;;
21170;SDS011;10743;52.160;20.910;2023-11-19T05:43:53;43.10;;;16.00;;
21170;SDS011;10743;52.160;20.910;2023-11-19T05:46:20;46.40;;;16.33;;
21170;SDS011;10743;52.160;20.910;2023-11-19T05:48:48;34.10;;;13.57;;
21170;SDS011;10743;52.160;20.910;2023-11-19T05:51:15;42.77;;;14.80;;
21170;SDS011;10743;52.160;20.910;2023-11-19T05:53:42;42.23;;;13.97;;
21170;SDS011;10743;52.160;20.910;2023-11-19T05:56:10;38.33;;;14.23;;
21170;SDS011;10743;52.160;20.910;2023-11-19T05:58:37;35.13;;;14.20;;
21170;SDS011;10743;52.160;20.910;2023-11-19T06:01:05;38.60;;;14.70;;
21170;SDS011;10743;52.160;20.910;2023-11-19T06:03:34;33.73;;;14.17;;
21170;SDS011;10743;52.160;20.910;2023-11-19T06:06:03;31.57;;;13.63;;
21170;SDS011;10743;52.160;20.910;2023-11-19T06:08:31;29.50;;;12.87;;
21170;SDS011;10743;52.160;20.910;2023-11-19T06:10:59;29.00;;;11.00;;
21170;SDS011;10743;52.160;20.910;2023-11-19T06:13:28;31.47;;;10.63;;
21170;SDS011;10743;52.160;20.910;2023-11-19T06:15:57;38.17;;;23.53;;
21170;SDS011;10743;52.160;20.910;2023-11-19T06:18:25;26.17;;;11.13;;
21170;SDS011;10743;52.160;20.910;2023-11-19T06:20:52;25.27;;;11.43;;
21170;SDS011;10743;52.160;20.910;2023-11-19T06:23:19;30.23;;;12.20;;
21170;SDS011;10743;52.160;20.910;2023-11-19T06:25:46;26.90;;;12.03;;
21170;SDS011;10743;52.160;20.910;2023-11-19T06:28:13;24.80;;;11.93;;
21170;SDS011;10743;52.160;20.910;2023-11-19T06:30:41;26.30;;;10.63;;
21170;SDS011;10743;52.160;20.910;2023-11-19T06:33:08;24.73;;;10.80;;
21170;SDS011;10743;52.160;20.910;2023-11-19T06:35:35;23.00;;;10.90;;
21170;SDS011;10743;52.160;20.910;2023-11-19T06:38:03;18.23;;;8.87;;
21170;SDS011;10743;52.160;20.910;2023-11-19T06:40:33;19.03;;;10.03;;
21170;SDS011;10743;52.160;20.910;2023-11-19T06:43:04;18.67;;;9.13;;
21170;SDS011;10743;52.160;20.910;2023-11-19T06:45:31;17.40;;;8.37;;
21170;SDS011;10743;52.160;20.910;2023-11-19T06:48:00;13.50;;;7.23;;
21170;SDS011;10743;52.160;20.910;2023-11-19T06:50:30;15.00;;;7.30;;
21170;SDS011;10743;52.160;20.910;2023-11-19T06:52:58;11.77;;;5.80;;
21170;SDS011;10743;52.160;20.910;2023-11-19T06:55:26;13.63;;;6.87;;
21170;SDS011;10743;52.160;20.910;2023-11-19T06:57:54;11.33;;;6.43;;
21170;SDS011;10743;52.160;20.910;2023-11-19T07:00:20;12.80;;;5.90;;
21170;SDS011;10743;52.160;20.910;2023-11-19T07:02:48;14.30;;;6.70;;
21170;SDS011;10743;52.160;20.910;2023-11-19T07:05:16;15.40;;;7.40;;
21170;SDS011;10743;52.160;20.910;2023-11-19T07:07:43;15.67;;;7.77;;
21170;SDS011;10743;52.160;20.910;2023-11-19T07:10:12;14.73;;;7.87;;
21170;SDS011;10743;52.160;20.910;2023-11-19T07:12:39;15.13;;;7.03;;
21170;SDS011;10743;52.160;20.910;2023-11-19T07:15:06;14.10;;;6.87;;
21170;SDS011;10743;52.160;20.910;2023-11-19T07:17:35;15.73;;;7.20;;
21170;SDS011;10743;52.160;20.910;2023-11-19T07:20:03;15.13;;;7.97;;
21170;SDS011;10743;52.160;20.910;2023-11-19T07:22:30;16.63;;;8.47;;
21170;SDS011;10743;52.160;20.910;2023-11-19T07:24:58;14.27;;;7.40;;
21170;SDS011;10743;52.160;20.910;2023-11-19T07:27:25;18.53;;;7.67;;
21170;SDS011;10743;52.160;20.910;2023-11-19T07:29:52;17.17;;;7.90;;
21170;SDS011;10743;52.160;20.910;2023-11-19T07:32:19;15.53;;;7.37;;
21170;SDS011;10743;52.160;20.910;2023-11-19T07:34:46;16.83;;;8.67;;
21170;SDS011;10743;52.160;20.910;2023-11-19T07:37:13;18.97;;;8.20;;
21170;SDS011;10743;52.160;20.910;2023-11-19T07:39:40;18.30;;;8.80;;
21170;SDS011;10743;52.160;20.910;2023-11-19T07:42:08;18.83;;;8.90;;
21170;SDS011;10743;52.160;20.910;2023-11-19T07:44:38;19.70;;;9.30;;
21170;SDS011;10743;52.160;20.910;2023-11-19T07:47:05;18.77;;;8.60;;
21170;SDS011;10743;52.160;20.910;2023-11-19T07:49:32;18.40;;;8.50;;
21170;SDS011;10743;52.160;20.910;2023-11-19T07:51:59;19.53;;;8.60;;
21170;SDS011;10743;52.160;20.910;2023-11-19T07:54:26;17.30;;;8.80;;
21170;SDS011;10743;52.160;20.910;2023-11-19T07:56:53;20.43;;;8.60;;
21170;SDS011;10743;52.160;20.910;2023-11-19T07:59:21;17.33;;;9.10;;
21170;SDS011;10743;52.160;20.910;2023-11-19T08:01:48;20.47;;;9.73;;
21170;SDS011;10743;52.160;20.910;2023-11-19T08:04:15;19.07;;;8.87;;
21170;SDS011;10743;52.160;20.910;2023-11-19T08:06:43;19.07;;;9.03;;
21170;SDS011;10743;52.160;20.910;2023-11-19T08:09:10;19.30;;;8.53;;
21170;SDS011;10743;52.160;20.910;2023-11-19T08:11:41;22.30;;;10.90;;
21170;SDS011;10743;52.160;20.910;2023-11-19T08:14:08;28.70;;;13.63;;
21170;SDS011;10743;52.160;20.910;2023-11-19T08:16:36;32.33;;;14.00;;
21170;SDS011;10743;52.160;20.910;2023-11-19T08:19:04;28.63;;;12.67;;
21170;SDS011;10743;52.160;20.910;2023-11-19T08:21:31;35.17;;;15.77;;
21170;SDS011;10743;52.160;20.910;2023-11-19T08:23:58;34.17;;;14.80;;
21170;SDS011;10743;52.160;20.910;2023-11-19T08:26:25;31.50;;;14.10;;
21170;SDS011;10743;52.160;20.910;2023-11-19T08:28:53;27.67;;;11.83;;
21170;SDS011;10743;52.160;20.910;2023-11-19T08:31:20;24.27;;;11.53;;
21170;SDS011;10743;52.160;20.910;2023-11-19T08:33:47;21.70;;;10.30;;
21170;SDS011;10743;52.160;20.910;2023-11-19T08:36:17;20.73;;;9.93;;
21170;SDS011;10743;52.160;20.910;2023-11-19T08:38:45;16.90;;;8.53;;
21170;SDS011;10743;52.160;20.910;2023-11-19T08:41:15;19.53;;;10.10;;
21170;SDS011;10743;52.160;20.910;2023-11-19T08:43:44;21.03;;;10.03;;
21170;SDS011;10743;52.160;20.910;2023-11-19T08:46:12;22.93;;;10.57;;
21170;SDS011;10743;52.160;20.910;2023-11-19T08:48:40;24.33;;;11.50;;
21170;SDS011;10743;52.160;20.910;2023-11-19T08:51:07;17.97;;;8.60;;
21170;SDS011;10743;52.160;20.910;2023-11-19T08:53:34;20.37;;;10.33;;
21170;SDS011;10743;52.160;20.910;2023-11-19T08:56:01;20.37;;;9.83;;
21170;SDS011;10743;52.160;20.910;2023-11-19T08:58:29;20.07;;;10.37;;
21170;SDS011;10743;52.160;20.910;2023-11-19T09:00:57;25.13;;;10.03;;
21170;SDS011;10743;52.160;20.910;2023-11-19T09:03:25;22.13;;;10.40;;
21170;SDS011;10743;52.160;20.910;2023-11-19T09:05:53;19.70;;;10.33;;
21170;SDS011;10743;52.160;20.910;2023-11-19T09:08:20;22.57;;;10.67;;
21170;SDS011;10743;52.160;20.910;2023-11-19T09:10:47;19.10;;;10.10;;
21170;SDS011;10743;52.160;20.910;2023-11-19T09:13:14;22.90;;;10.17;;
21170;SDS011;10743;52.160;20.910;2023-11-19T09:15:41;19.77;;;9.77;;
21170;SDS011;10743;52.160;20.910;2023-11-19T09:18:09;18.80;;;9.13;;
21170;SDS011;10743;52.160;20.910;2023-11-19T09:20:36;17.13;;;8.53;;
21170;SDS011;10743;52.160;20.910;2023-11-19T09:23:05;19.17;;;9.53;;
21170;SDS011;10743;52.160;20.910;2023-11-19T09:25:33;20.73;;;10.37;;
21170;SDS011;10743;52.160;20.910;2023-11-19T09:28:03;30.23;;;15.27;;
21170;SDS011;10743;52.160;20.910;2023-11-19T09:30:30;30.83;;;13.10;;
21170;SDS011;10743;52.160;20.910;2023-11-19T09:33:00;21.47;;;10.07;;
21170;SDS011;10743;52.160;20.910;2023-11-19T09:35:28;29.03;;;12.17;;
21170;SDS011;10743;52.160;20.910;2023-11-19T09:37:55;36.87;;;14.73;;
21170;SDS011;10743;52.160;20.910;2023-11-19T09:40:22;32.33;;;11.40;;
21170;SDS011;10743;52.160;20.910;2023-11-19T09:42:49;32.77;;;12.70;;
21170;SDS011;10743;52.160;20.910;2023-11-19T09:45:17;30.43;;;10.90;;
21170;SDS011;10743;52.160;20.910;2023-11-19T09:47:47;36.53;;;13.50;;
21170;SDS011;10743;52.160;20.910;2023-11-19T09:50:19;31.67;;;11.70;;
21170;SDS011;10743;52.160;20.910;2023-11-19T09:52:46;44.23;;;15.90;;
21170;SDS011;10743;52.160;20.910;2023-11-19T09:55:14;40.70;;;13.70;;
21170;SDS011;10743;52.160;20.910;2023-11-19T09:57:41;38.50;;;12.50;;
21170;SDS011;10743;52.160;20.910;2023-11-19T10:00:10;27.30;;;10.17;;
21170;SDS011;10743;52.160;20.910;2023-11-19T10:02:41;34.87;;;11.03;;
21170;SDS011;10743;52.160;20.910;2023-11-19T10:05:13;27.20;;;9.90;;
21170;SDS011;10743;52.160;20.910;2023-11-19T10:07:41;32.13;;;10.70;;
21170;SDS011;10743;52.160;20.910;2023-11-19T10:10:09;27.97;;;10.33;;
21170;SDS011;10743;52.160;20.910;2023-11-19T10:12:40;40.00;;;11.73;;
21170;SDS011;10743;52.160;20.910;2023-11-19T10:15:24;24.23;;;10.50;;
21170;SDS011;10743;52.160;20.910;2023-11-19T10:17:57;24.80;;;9.63;;
21170;SDS011;10743;52.160;20.910;2023-11-19T10:20:37;31.07;;;11.40;;
21170;SDS011;10743;52.160;20.910;2023-11-19T10:23:07;30.73;;;11.43;;
21170;SDS011;10743;52.160;20.910;2023-11-19T10:25:34;27.00;;;10.97;;
21170;SDS011;10743;52.160;20.910;2023-11-19T10:28:01;28.07;;;11.63;;
21170;SDS011;10743;52.160;20.910;2023-11-19T10:30:30;28.53;;;10.97;;
21170;SDS011;10743;52.160;20.910;2023-11-19T10:35:51;28.93;;;10.37;;
21170;SDS011;10743;52.160;20.910;2023-11-19T10:38:26;30.47;;;11.97;;
21170;SDS011;10743;52.160;20.910;2023-11-19T10:40:53;37.43;;;14.37;;
21170;SDS011;10743;52.160;20.910;2023-11-19T10:43:21;29.60;;;11.63;;
21170;SDS011;10743;52.160;20.910;2023-11-19T10:45:49;42.93;;;15.07;;
21170;SDS011;10743;52.160;20.910;2023-11-19T10:48:17;39.40;;;15.23;;
21170;SDS011;10743;52.160;20.910;2023-11-19T10:50:45;35.43;;;13.33;;
21170;SDS011;10743;52.160;20.910;2023-11-19T10:53:16;30.13;;;11.77;;
21170;SDS011;10743;52.160;20.910;2023-11-19T10:55:46;26.33;;;10.47;;
21170;SDS011;10743;52.160;20.910;2023-11-19T10:58:15;34.07;;;12.00;;
21170;SDS011;10743;52.160;20.910;2023-11-19T11:00:52;28.50;;;11.10;;
21170;SDS011;10743;52.160;20.910;2023-11-19T11:03:27;48.93;;;16.63;;
21170;SDS011;10743;52.160;20.910;2023-11-19T11:06:06;41.70;;;14.83;;
21170;SDS011;10743;52.160;20.910;2023-11-19T11:08:38;62.33;;;14.87;;
21170;SDS011;10743;52.160;20.910;2023-11-19T11:11:07;30.37;;;11.90;;
21170;SDS011;10743;52.160;20.910;2023-11-19T11:13:36;44.53;;;17.13;;
21170;SDS011;10743;52.160;20.910;2023-11-19T11:16:07;43.70;;;17.17;;
21170;SDS011;10743;52.160;20.910;2023-11-19T11:18:35;41.87;;;14.80;;
21170;SDS011;10743;52.160;20.910;2023-11-19T11:21:05;66.90;;;20.37;;
21170;SDS011;10743;52.160;20.910;2023-11-19T11:29:46;49.47;;;19.03;;
21170;SDS011;10743;52.160;20.910;2023-11-19T11:32:43;46.37;;;17.13;;
21170;SDS011;10743;52.160;20.910;2023-11-19T11:38:07;25.90;;;12.30;;
21170;SDS011;10743;52.160;20.910;2023-11-19T11:40:35;32.33;;;14.77;;
21170;SDS011;10743;52.160;20.910;2023-11-19T11:43:05;30.83;;;14.60;;
21170;SDS011;10743;52.160;20.910;2023-11-19T11:49:03;26.23;;;13.50;;
21170;SDS011;10743;52.160;20.910;2023-11-19T12:02:11;26.53;;;11.83;;
21170;SDS011;10743;52.160;20.910;2023-11-19T12:04:40;27.87;;;13.03;;
21170;SDS011;10743;52.160;20.910;2023-11-19T12:07:12;30.43;;;12.63;;
21170;SDS011;10743;52.160;20.910;2023-11-19T12:09:42;22.10;;;11.50;;
21170;SDS011;10743;52.160;20.910;2023-11-19T12:15:00;25.30;;;11.23;;
21170;SDS011;10743;52.160;20.910;2023-11-19T12:20:18;41.73;;;11.90;;
21170;SDS011;10743;52.160;20.910;2023-11-19T12:22:53;38.30;;;12.00;;
21170;SDS011;10743;52.160;20.910;2023-11-19T12:25:21;32.97;;;10.73;;
21170;SDS011;10743;52.160;20.910;2023-11-19T12:27:49;42.93;;;12.20;;
21170;SDS011;10743;52.160;20.910;2023-11-19T12:30:23;33.33;;;10.57;;
21170;SDS011;10743;52.160;20.910;2023-11-19T12:32:53;34.50;;;11.40;;
21170;SDS011;10743;52.160;20.910;2023-11-19T12:35:21;43.97;;;12.43;;
21170;SDS011;10743;52.160;20.910;2023-11-19T12:37:50;36.87;;;11.60;;
21170;SDS011;10743;52.160;20.910;2023-11-19T12:42:49;38.33;;;12.10;;
21170;SDS011;10743;52.160;20.910;2023-11-19T12:45:21;29.90;;;11.73;;
21170;SDS011;10743;52.160;20.910;2023-11-19T12:47:50;38.60;;;11.60;;
21170;SDS011;10743;52.160;20.910;2023-11-19T12:50:55;39.07;;;12.07;;
21170;SDS011;10743;52.160;20.910;2023-11-19T12:53:24;43.30;;;13.57;;
21170;SDS011;10743;52.160;20.910;2023-11-19T12:55:53;41.07;;;13.57;;
21170;SDS011;10743;52.160;20.910;2023-11-19T12:58:32;40.40;;;13.43;;
21170;SDS011;10743;52.160;20.910;2023-11-19T13:01:02;35.47;;;12.43;;
21170;SDS011;10743;52.160;20.910;2023-11-19T13:06:04;34.50;;;13.23;;
21170;SDS011;10743;52.160;20.910;2023-11-19T13:11:12;127.20;;;20.63;;
21170;SDS011;10743;52.160;20.910;2023-11-19T13:16:43;33.70;;;11.37;;
21170;SDS011;10743;52.160;20.910;2023-11-19T13:19:12;35.93;;;11.53;;
21170;SDS011;10743;52.160;20.910;2023-11-19T13:21:42;35.07;;;10.50;;
21170;SDS011;10743;52.160;20.910;2023-11-19T13:24:12;39.73;;;13.10;;
21170;SDS011;10743;52.160;20.910;2023-11-19T13:26:39;42.27;;;13.20;;
21170;SDS011;10743;52.160;20.910;2023-11-19T13:29:06;34.23;;;12.57;;
21170;SDS011;10743;52.160;20.910;2023-11-19T13:31:33;37.90;;;13.30;;
21170;SDS011;10743;52.160;20.910;2023-11-19T13:34:01;39.80;;;13.93;;
21170;SDS011;10743;52.160;20.910;2023-11-19T13:36:28;34.07;;;12.67;;
21170;SDS011;10743;52.160;20.910;2023-11-19T13:38:56;47.43;;;13.57;;
21170;SDS011;10743;52.160;20.910;2023-11-19T13:41:26;42.97;;;12.47;;
21170;SDS011;10743;52.160;20.910;2023-11-19T13:43:53;37.97;;;13.00;;
21170;SDS011;10743;52.160;20.910;2023-11-19T13:46:21;36.90;;;13.07;;
21170;SDS011;10743;52.160;20.910;2023-11-19T13:48:48;35.47;;;13.03;;
21170;SDS011;10743;52.160;20.910;2023-11-19T13:51:16;40.73;;;12.53;;
21170;SDS011;10743;52.160;20.910;2023-11-19T13:53:43;36.63;;;12.77;;
21170;SDS011;10743;52.160;20.910;2023-11-19T13:56:13;33.37;;;11.87;;
21170;SDS011;10743;52.160;20.910;2023-11-19T13:58:40;36.73;;;12.57;;
21170;SDS011;10743;52.160;20.910;2023-11-19T14:01:07;39.23;;;13.23;;
21170;SDS011;10743;52.160;20.910;2023-11-19T14:03:34;37.57;;;12.70;;
21170;SDS011;10743;52.160;20.910;2023-11-19T14:06:01;35.27;;;12.77;;
21170;SDS011;10743;52.160;20.910;2023-11-19T14:08:29;40.30;;;12.63;;
21170;SDS011;10743;52.160;20.910;2023-11-19T14:10:56;40.40;;;14.07;;
21170;SDS011;10743;52.160;20.910;2023-11-19T14:13:24;37.90;;;12.87;;
21170;SDS011;10743;52.160;20.910;2023-11-19T14:15:51;36.37;;;14.07;;
21170;SDS011;10743;52.160;20.910;2023-11-19T14:18:18;35.10;;;13.10;;
21170;SDS011;10743;52.160;20.910;2023-11-19T14:20:45;41.80;;;13.47;;
21170;SDS011;10743;52.160;20.910;2023-11-19T14:23:12;34.83;;;13.07;;
21170;SDS011;10743;52.160;20.910;2023-11-19T14:25:39;38.37;;;14.30;;
21170;SDS011;10743;52.160;20.910;2023-11-19T14:28:06;37.90;;;12.73;;
21170;SDS011;10743;52.160;20.910;2023-11-19T14:30:34;38.03;;;12.27;;
21170;SDS011;10743;52.160;20.910;2023-11-19T14:33:01;35.70;;;13.20;;
21170;SDS011;10743;52.160;20.910;2023-11-19T14:35:30;33.23;;;12.13;;
21170;SDS011;10743;52.160;20.910;2023-11-19T14:37:59;33.90;;;12.70;;
21170;SDS011;10743;52.160;20.910;2023-11-19T14:40:27;33.13;;;12.13;;
21170;SDS011;10743;52.160;20.910;2023-11-19T14:42:56;37.93;;;13.60;;
21170;SDS011;10743;52.160;20.910;2023-11-19T14:45:23;39.43;;;14.17;;
21170;SDS011;10743;52.160;20.910;2023-11-19T14:47:50;39.00;;;14.10;;
21170;SDS011;10743;52.160;20.910;2023-11-19T14:50:19;37.27;;;14.43;;
21170;SDS011;10743;52.160;20.910;2023-11-19T14:52:46;38.47;;;14.00;;
21170;SDS011;10743;52.160;20.910;2023-11-19T14:55:13;34.77;;;13.90;;
21170;SDS011;10743;52.160;20.910;2023-11-19T14:57:40;41.77;;;14.57;;
21170;SDS011;10743;52.160;20.910;2023-11-19T15:00:14;38.97;;;14.97;;
21170;SDS011;10743;52.160;20.910;2023-11-19T15:02:42;39.10;;;14.83;;